sensor_id;sensor_type;location;lat;lon;timestamp;pressure;altitude;pressure_sealevel;temperature;humidity
21644;BME280;10983;51.982;9.226;2023-02-15T00:01:33;101296.09;;;0.74;100.00
21644;BME280;10983;51.982;9.226;2023-02-15T00:04:01;101298.44;;;0.58;100.00
21644;BME280;10983;51.982;9.226;2023-02-15T00:06:29;101297.06;;;0.45;100.00
21644;BME280;10983;51.982;9.226;2023-02-15T00:08:59;101298.41;;;0.30;100.00
21644;BME280;10983;51.982;9.226;2023-02-15T00:11:27;101299.13;;;0.23;100.00
21644;BME280;10983;51.982;9.226;2023-02-15T00:14:10;101301.81;;;0.12;100.00
21644;BME280;10983;51.982;9.226;2023-02-15T00:16:38;101293.81;;;0.04;100.00
21644;BME280;10983;51.982;9.226;2023-02-15T00:19:07;101290.09;;;-0.03;100.00
21644;BME280;10983;51.982;9.226;2023-02-15T00:21:36;101291.31;;;-0.07;100.00
21644;BME280;10983;51.982;9.226;2023-02-15T00:24:06;101292.25;;;-0.17;100.00
21644;BME280;10983;51.982;9.226;2023-02-15T00:26:34;101290.25;;;0.05;100.00
21644;BME280;10983;51.982;9.226;2023-02-15T00:29:02;101295.50;;;0.14;100.00
21644;BME280;10983;51.982;9.226;2023-02-15T00:31:32;101293.03;;;0.22;100.00
21644;BME280;10983;51.982;9.226;2023-02-15T00:34:01;101299.25;;;0.31;100.00
21644;BME280;10983;51.982;9.226;2023-02-15T00:36:29;101297.75;;;0.38;100.00
21644;BME280;10983;51.982;9.226;2023-02-15T00:38:56;101304.06;;;0.26;100.00
21644;BME280;10983;51.982;9.226;2023-02-15T00:41:24;101301.00;;;0.11;100.00
21644;BME280;10983;51.982;9.226;2023-02-15T00:43:52;101298.34;;;-0.07;100.00
21644;BME280;10983;51.982;9.226;2023-02-15T00:46:20;101292.00;;;-0.14;100.00
21644;BME280;10983;51.982;9.226;2023-02-15T00:48:49;101289.91;;;-0.20;100.00
21644;BME280;10983;51.982;9.226;2023-02-15T00:51:16;101297.59;;;-0.19;100.00
21644;BME280;10983;51.982;9.226;2023-02-15T00:53:44;101303.38;;;-0.25;100.00
21644;BME280;10983;51.982;9.226;2023-02-15T00:56:12;101297.19;;;-0.24;100.00
21644;BME280;10983;51.982;9.226;2023-02-15T00:58:39;101309.19;;;-0.21;100.00
21644;BME280;10983;51.982;9.226;2023-02-15T01:01:09;101308.31;;;-0.22;100.00
21644;BME280;10983;51.982;9.226;2023-02-15T01:03:38;101305.72;;;-0.22;100.00
21644;BME280;10983;51.982;9.226;2023-02-15T01:06:09;101312.47;;;-0.19;100.00
21644;BME280;10983;51.982;9.226;2023-02-15T01:08:37;101321.66;;;-0.25;100.00
21644;BME280;10983;51.982;9.226;2023-02-15T01:11:06;101321.22;;;-0.30;100.00
21644;BME280;10983;51.982;9.226;2023-02-15T01:13:35;101321.31;;;-0.41;100.00
21644;BME280;10983;51.982;9.226;2023-02-15T01:16:03;101314.44;;;-0.42;100.00
21644;BME280;10983;51.982;9.226;2023-02-15T01:18:31;101322.28;;;-0.42;100.00
21644;BME280;10983;51.982;9.226;2023-02-15T01:20:59;101318.84;;;-0.42;100.00
21644;BME280;10983;51.982;9.226;2023-02-15T01:23:28;101324.03;;;-0.52;100.00
21644;BME280;10983;51.982;9.226;2023-02-15T01:26:01;101329.25;;;-0.52;100.00
21644;BME280;10983;51.982;9.226;2023-02-15T01:28:29;101321.06;;;-0.38;100.00
21644;BME280;10983;51.982;9.226;2023-02-15T01:30:56;101325.28;;;-0.46;100.00
21644;BME280;10983;51.982;9.226;2023-02-15T01:33:25;101336.72;;;-0.38;100.00
21644;BME280;10983;51.982;9.226;2023-02-15T01:35:56;101319.97;;;-0.35;100.00
21644;BME280;10983;51.982;9.226;2023-02-15T01:38:25;101328.06;;;-0.38;100.00
21644;BME280;10983;51.982;9.226;2023-02-15T01:40:54;101320.63;;;-0.43;100.00
21644;BME280;10983;51.982;9.226;2023-02-15T01:43:44;101327.19;;;-0.48;100.00
21644;BME280;10983;51.982;9.226;2023-02-15T01:46:14;101322.09;;;-0.50;100.00
21644;BME280;10983;51.982;9.226;2023-02-15T01:48:45;101319.34;;;-0.48;100.00
21644;BME280;10983;51.982;9.226;2023-02-15T01:51:14;101324.97;;;-0.53;100.00
21644;BME280;10983;51.982;9.226;2023-02-15T01:53:47;101320.16;;;-0.57;100.00
21644;BME280;10983;51.982;9.226;2023-02-15T01:56:22;101329.56;;;-0.45;100.00
21644;BME280;10983;51.982;9.226;2023-02-15T01:58:53;101323.88;;;-0.50;100.00
21644;BME280;10983;51.982;9.226;2023-02-15T02:01:24;101330.72;;;-0.58;100.00
21644;BME280;10983;51.982;9.226;2023-02-15T02:03:57;101326.63;;;-0.52;100.00
21644;BME280;10983;51.982;9.226;2023-02-15T02:06:27;101330.31;;;-0.54;100.00
21644;BME280;10983;51.982;9.226;2023-02-15T02:08:55;101334.34;;;-0.50;100.00
21644;BME280;10983;51.982;9.226;2023-02-15T02:11:25;101340.59;;;-0.62;100.00
21644;BME280;10983;51.982;9.226;2023-02-15T02:13:53;101337.66;;;-0.68;100.00
21644;BME280;10983;51.982;9.226;2023-02-15T02:19:04;101331.25;;;-0.85;100.00
21644;BME280;10983;51.982;9.226;2023-02-15T02:21:51;101341.16;;;-0.58;100.00
21644;BME280;10983;51.982;9.226;2023-02-15T02:24:47;101329.06;;;-0.30;100.00
21644;BME280;10983;51.982;9.226;2023-02-15T02:27:58;101346.69;;;0.17;100.00
21644;BME280;10983;51.982;9.226;2023-02-15T02:30:55;101346.63;;;0.47;100.00
21644;BME280;10983;51.982;9.226;2023-02-15T02:33:51;101352.56;;;0.49;100.00
21644;BME280;10983;51.982;9.226;2023-02-15T02:36:28;101343.63;;;0.70;100.00
21644;BME280;10983;51.982;9.226;2023-02-15T02:39:07;101357.28;;;0.73;100.00
21644;BME280;10983;51.982;9.226;2023-02-15T02:41:48;101351.34;;;0.71;100.00
21644;BME280;10983;51.982;9.226;2023-02-15T02:44:21;101352.84;;;0.64;100.00
21644;BME280;10983;51.982;9.226;2023-02-15T02:46:52;101344.44;;;0.61;100.00
21644;BME280;10983;51.982;9.226;2023-02-15T02:49:33;101336.59;;;0.61;100.00
21644;BME280;10983;51.982;9.226;2023-02-15T02:52:05;101337.16;;;0.64;100.00
21644;BME280;10983;51.982;9.226;2023-02-15T02:54:34;101336.06;;;0.67;100.00
21644;BME280;10983;51.982;9.226;2023-02-15T02:57:05;101343.75;;;0.59;100.00
21644;BME280;10983;51.982;9.226;2023-02-15T02:59:39;101345.00;;;0.64;100.00
21644;BME280;10983;51.982;9.226;2023-02-15T03:02:11;101348.03;;;0.69;100.00
21644;BME280;10983;51.982;9.226;2023-02-15T03:04:46;101338.91;;;0.64;100.00
21644;BME280;10983;51.982;9.226;2023-02-15T03:07:17;101338.66;;;0.57;100.00
21644;BME280;10983;51.982;9.226;2023-02-15T03:09:51;101338.38;;;0.60;100.00
21644;BME280;10983;51.982;9.226;2023-02-15T03:12:21;101326.97;;;0.71;100.00
21644;BME280;10983;51.982;9.226;2023-02-15T03:14:54;101333.59;;;0.75;100.00
21644;BME280;10983;51.982;9.226;2023-02-15T03:17:26;101323.38;;;0.72;100.00
21644;BME280;10983;51.982;9.226;2023-02-15T03:19:58;101336.72;;;0.88;100.00
21644;BME280;10983;51.982;9.226;2023-02-15T03:22:33;101337.97;;;0.93;100.00
21644;BME280;10983;51.982;9.226;2023-02-15T03:25:06;101339.22;;;1.08;100.00
21644;BME280;10983;51.982;9.226;2023-02-15T03:27:40;101337.41;;;1.18;100.00
21644;BME280;10983;51.982;9.226;2023-02-15T03:30:12;101345.81;;;1.21;100.00
21644;BME280;10983;51.982;9.226;2023-02-15T03:32:41;101342.47;;;1.29;100.00
21644;BME280;10983;51.982;9.226;2023-02-15T03:35:11;101339.16;;;1.36;100.00
21644;BME280;10983;51.982;9.226;2023-02-15T03:37:41;101337.50;;;1.35;100.00
21644;BME280;10983;51.982;9.226;2023-02-15T03:40:18;101336.13;;;1.41;100.00
21644;BME280;10983;51.982;9.226;2023-02-15T03:43:08;101331.00;;;1.49;100.00
21644;BME280;10983;51.982;9.226;2023-02-15T03:45:40;101332.50;;;1.51;100.00
21644;BME280;10983;51.982;9.226;2023-02-15T03:48:23;101323.97;;;1.40;100.00
21644;BME280;10983;51.982;9.226;2023-02-15T03:50:56;101315.00;;;1.42;100.00
21644;BME280;10983;51.982;9.226;2023-02-15T03:53:43;101311.00;;;1.48;100.00
21644;BME280;10983;51.982;9.226;2023-02-15T03:56:12;101308.25;;;1.40;100.00
21644;BME280;10983;51.982;9.226;2023-02-15T03:58:40;101318.72;;;1.49;100.00
21644;BME280;10983;51.982;9.226;2023-02-15T04:01:33;101315.53;;;1.55;100.00
21644;BME280;10983;51.982;9.226;2023-02-15T04:04:28;101311.84;;;1.48;100.00
21644;BME280;10983;51.982;9.226;2023-02-15T04:06:59;101303.47;;;1.35;100.00
21644;BME280;10983;51.982;9.226;2023-02-15T04:09:26;101308.53;;;1.37;100.00
21644;BME280;10983;51.982;9.226;2023-02-15T04:12:11;101297.09;;;1.38;100.00
21644;BME280;10983;51.982;9.226;2023-02-15T04:14:39;101288.88;;;1.23;100.00
21644;BME280;10983;51.982;9.226;2023-02-15T04:17:24;101289.41;;;1.36;100.00
21644;BME280;10983;51.982;9.226;2023-02-15T04:19:51;101300.84;;;1.35;100.00
21644;BME280;10983;51.982;9.226;2023-02-15T04:22:38;101295.31;;;1.38;100.00
21644;BME280;10983;51.982;9.226;2023-02-15T04:25:23;101287.19;;;1.41;100.00
21644;BME280;10983;51.982;9.226;2023-02-15T04:27:52;101291.16;;;1.36;100.00
21644;BME280;10983;51.982;9.226;2023-02-15T04:30:21;101288.69;;;1.34;100.00
21644;BME280;10983;51.982;9.226;2023-02-15T04:32:49;101288.56;;;1.36;100.00
21644;BME280;10983;51.982;9.226;2023-02-15T04:35:17;101286.22;;;1.33;100.00
21644;BME280;10983;51.982;9.226;2023-02-15T04:37:46;101285.13;;;1.35;100.00
21644;BME280;10983;51.982;9.226;2023-02-15T04:40:14;101285.13;;;1.35;100.00
21644;BME280;10983;51.982;9.226;2023-02-15T04:42:47;101285.13;;;1.35;100.00
21644;BME280;10983;51.982;9.226;2023-02-15T04:45:16;101285.13;;;1.35;100.00
21644;BME280;10983;51.982;9.226;2023-02-15T04:47:44;101269.66;;;1.42;100.00
21644;BME280;10983;51.982;9.226;2023-02-15T04:50:11;101265.41;;;1.31;100.00
21644;BME280;10983;51.982;9.226;2023-02-15T04:52:39;101263.38;;;1.25;100.00
21644;BME280;10983;51.982;9.226;2023-02-15T04:55:08;101259.25;;;1.23;100.00
21644;BME280;10983;51.982;9.226;2023-02-15T04:57:35;101256.47;;;1.24;100.00
21644;BME280;10983;51.982;9.226;2023-02-15T05:00:03;101253.44;;;1.19;100.00
21644;BME280;10983;51.982;9.226;2023-02-15T05:02:30;101254.00;;;1.23;100.00
21644;BME280;10983;51.982;9.226;2023-02-15T05:04:58;101253.44;;;1.19;100.00
21644;BME280;10983;51.982;9.226;2023-02-15T05:07:25;101257.72;;;1.20;100.00
21644;BME280;10983;51.982;9.226;2023-02-15T05:09:55;101256.47;;;1.24;100.00
21644;BME280;10983;51.982;9.226;2023-02-15T05:12:24;101267.22;;;1.31;100.00
21644;BME280;10983;51.982;9.226;2023-02-15T05:14:51;101267.91;;;1.23;100.00
21644;BME280;10983;51.982;9.226;2023-02-15T05:17:19;101267.91;;;1.23;100.00
21644;BME280;10983;51.982;9.226;2023-02-15T05:19:46;101259.94;;;1.15;100.00
21644;BME280;10983;51.982;9.226;2023-02-15T05:22:14;101262.94;;;1.30;100.00
21644;BME280;10983;51.982;9.226;2023-02-15T05:24:41;101263.59;;;1.41;100.00
21644;BME280;10983;51.982;9.226;2023-02-15T05:27:27;101253.97;;;1.32;100.00
21644;BME280;10983;51.982;9.226;2023-02-15T05:30:13;101257.97;;;1.36;100.00
21644;BME280;10983;51.982;9.226;2023-02-15T05:32:41;101250.28;;;1.25;100.00
21644;BME280;10983;51.982;9.226;2023-02-15T05:35:13;101245.06;;;1.16;100.00
21644;BME280;10983;51.982;9.226;2023-02-15T05:37:40;101243.38;;;1.24;100.00
21644;BME280;10983;51.982;9.226;2023-02-15T05:40:08;101244.00;;;1.36;100.00
21644;BME280;10983;51.982;9.226;2023-02-15T05:42:37;101233.78;;;1.42;100.00
21644;BME280;10983;51.982;9.226;2023-02-15T05:45:06;101231.88;;;1.44;100.00
21644;BME280;10983;51.982;9.226;2023-02-15T05:47:34;101233.72;;;1.25;100.00
21644;BME280;10983;51.982;9.226;2023-02-15T05:50:04;101231.41;;;1.22;100.00
21644;BME280;10983;51.982;9.226;2023-02-15T05:52:35;101231.84;;;1.17;100.00
21644;BME280;10983;51.982;9.226;2023-02-15T05:55:02;101231.72;;;1.10;100.00
21644;BME280;10983;51.982;9.226;2023-02-15T05:57:30;101235.25;;;1.18;100.00
21644;BME280;10983;51.982;9.226;2023-02-15T05:59:59;101230.47;;;1.13;100.00
21644;BME280;10983;51.982;9.226;2023-02-15T06:02:26;101234.81;;;1.22;100.00
21644;BME280;10983;51.982;9.226;2023-02-15T06:04:54;101232.56;;;1.37;100.00
21644;BME280;10983;51.982;9.226;2023-02-15T06:07:21;101231.63;;;1.38;100.00
21644;BME280;10983;51.982;9.226;2023-02-15T06:09:49;101238.69;;;1.18;100.00
21644;BME280;10983;51.982;9.226;2023-02-15T06:12:16;101233.19;;;1.21;100.00
21644;BME280;10983;51.982;9.226;2023-02-15T06:14:44;101233.34;;;1.20;100.00
21644;BME280;10983;51.982;9.226;2023-02-15T06:17:13;101227.28;;;1.10;100.00
21644;BME280;10983;51.982;9.226;2023-02-15T06:19:40;101220.25;;;1.10;100.00
21644;BME280;10983;51.982;9.226;2023-02-15T06:22:07;101213.38;;;1.10;100.00
21644;BME280;10983;51.982;9.226;2023-02-15T06:24:35;101185.47;;;0.91;100.00
21644;BME280;10983;51.982;9.226;2023-02-15T06:27:02;101221.78;;;1.04;100.00
21644;BME280;10983;51.982;9.226;2023-02-15T06:29:30;101222.75;;;1.12;100.00
21644;BME280;10983;51.982;9.226;2023-02-15T06:31:57;101217.75;;;1.18;100.00
21644;BME280;10983;51.982;9.226;2023-02-15T06:34:26;101210.59;;;1.20;100.00
21644;BME280;10983;51.982;9.226;2023-02-15T06:36:53;101212.75;;;1.25;100.00
21644;BME280;10983;51.982;9.226;2023-02-15T06:39:21;101209.63;;;1.21;100.00
21644;BME280;10983;51.982;9.226;2023-02-15T06:41:48;101211.41;;;1.21;100.00
21644;BME280;10983;51.982;9.226;2023-02-15T06:44:17;101218.03;;;1.15;100.00
21644;BME280;10983;51.982;9.226;2023-02-15T06:46:44;101221.09;;;1.11;100.00
21644;BME280;10983;51.982;9.226;2023-02-15T06:49:12;101221.25;;;1.10;100.00
21644;BME280;10983;51.982;9.226;2023-02-15T06:51:40;101225.41;;;1.03;100.00
21644;BME280;10983;51.982;9.226;2023-02-15T06:54:08;101219.56;;;1.18;100.00
21644;BME280;10983;51.982;9.226;2023-02-15T06:56:35;101206.47;;;1.18;100.00
21644;BME280;10983;51.982;9.226;2023-02-15T06:59:02;101209.06;;;1.18;100.00
21644;BME280;10983;51.982;9.226;2023-02-15T07:01:31;101205.75;;;1.25;100.00
21644;BME280;10983;51.982;9.226;2023-02-15T07:03:59;101198.75;;;1.16;100.00
21644;BME280;10983;51.982;9.226;2023-02-15T07:06:31;101202.19;;;1.17;100.00
21644;BME280;10983;51.982;9.226;2023-02-15T07:08:59;101191.56;;;1.18;100.00
21644;BME280;10983;51.982;9.226;2023-02-15T07:11:28;101194.13;;;1.28;100.00
21644;BME280;10983;51.982;9.226;2023-02-15T07:14:14;101192.97;;;1.40;100.00
21644;BME280;10983;51.982;9.226;2023-02-15T07:16:42;101189.25;;;1.42;100.00
21644;BME280;10983;51.982;9.226;2023-02-15T07:19:10;101205.63;;;1.54;100.00
21644;BME280;10983;51.982;9.226;2023-02-15T07:21:37;101199.53;;;1.53;100.00
21644;BME280;10983;51.982;9.226;2023-02-15T07:24:06;101201.84;;;1.66;100.00
21644;BME280;10983;51.982;9.226;2023-02-15T07:26:33;101190.72;;;1.54;100.00
21644;BME280;10983;51.982;9.226;2023-02-15T07:29:01;101184.53;;;1.72;100.00
21644;BME280;10983;51.982;9.226;2023-02-15T07:31:29;101189.88;;;1.80;100.00
21644;BME280;10983;51.982;9.226;2023-02-15T07:33:57;101174.00;;;1.82;100.00
21644;BME280;10983;51.982;9.226;2023-02-15T07:36:25;101177.31;;;1.84;100.00
21644;BME280;10983;51.982;9.226;2023-02-15T07:38:52;101163.91;;;1.87;100.00
21644;BME280;10983;51.982;9.226;2023-02-15T07:41:21;101165.00;;;1.84;100.00
21644;BME280;10983;51.982;9.226;2023-02-15T07:43:49;101158.88;;;1.93;100.00
21644;BME280;10983;51.982;9.226;2023-02-15T07:46:17;101141.66;;;1.91;100.00
21644;BME280;10983;51.982;9.226;2023-02-15T07:48:47;101141.50;;;2.10;100.00
21644;BME280;10983;51.982;9.226;2023-02-15T07:51:14;101130.47;;;2.06;100.00
21644;BME280;10983;51.982;9.226;2023-02-15T07:53:43;101132.78;;;2.26;100.00
21644;BME280;10983;51.982;9.226;2023-02-15T07:56:12;101119.59;;;2.36;100.00
21644;BME280;10983;51.982;9.226;2023-02-15T07:58:42;101119.50;;;2.45;100.00
21644;BME280;10983;51.982;9.226;2023-02-15T08:01:19;101117.09;;;2.60;100.00
21644;BME280;10983;51.982;9.226;2023-02-15T08:03:48;101102.41;;;2.41;100.00
21644;BME280;10983;51.982;9.226;2023-02-15T08:06:16;101096.16;;;2.42;100.00
21644;BME280;10983;51.982;9.226;2023-02-15T08:08:43;101093.63;;;2.33;100.00
21644;BME280;10983;51.982;9.226;2023-02-15T08:11:17;101093.63;;;2.33;100.00
21644;BME280;10983;51.982;9.226;2023-02-15T08:14:02;101093.63;;;2.33;100.00
21644;BME280;10983;51.982;9.226;2023-02-15T08:16:33;101093.63;;;2.33;100.00
21644;BME280;10983;51.982;9.226;2023-02-15T08:19:03;101091.84;;;1.91;100.00
21644;BME280;10983;51.982;9.226;2023-02-15T08:21:32;101091.84;;;1.91;100.00
21644;BME280;10983;51.982;9.226;2023-02-15T08:24:00;101065.47;;;1.75;100.00
21644;BME280;10983;51.982;9.226;2023-02-15T08:26:29;101065.47;;;1.75;100.00
21644;BME280;10983;51.982;9.226;2023-02-15T08:28:57;101065.47;;;1.75;100.00
21644;BME280;10983;51.982;9.226;2023-02-15T08:31:27;101076.16;;;1.99;100.00
21644;BME280;10983;51.982;9.226;2023-02-15T08:33:56;101076.16;;;1.99;100.00
21644;BME280;10983;51.982;9.226;2023-02-15T08:36:25;101076.16;;;1.99;100.00
21644;BME280;10983;51.982;9.226;2023-02-15T08:38:53;101076.16;;;1.99;100.00
21644;BME280;10983;51.982;9.226;2023-02-15T08:41:22;101076.16;;;1.99;100.00
21644;BME280;10983;51.982;9.226;2023-02-15T08:43:52;101076.16;;;1.99;100.00
21644;BME280;10983;51.982;9.226;2023-02-15T08:46:22;101076.16;;;1.99;100.00
21644;BME280;10983;51.982;9.226;2023-02-15T08:48:51;101076.16;;;1.99;100.00
21644;BME280;10983;51.982;9.226;2023-02-15T08:51:21;65387.91;;;-139.23;100.00
21644;BME280;10983;51.982;9.226;2023-02-15T08:53:50;65387.91;;;-139.23;100.00
21644;BME280;10983;51.982;9.226;2023-02-15T08:56:20;65387.91;;;-139.23;100.00
21644;BME280;10983;51.982;9.226;2023-02-15T08:58:48;65387.91;;;-139.23;100.00
21644;BME280;10983;51.982;9.226;2023-02-15T09:01:18;65387.91;;;-139.23;100.00
21644;BME280;10983;51.982;9.226;2023-02-15T09:03:49;65387.91;;;-139.23;100.00
21644;BME280;10983;51.982;9.226;2023-02-15T09:06:21;65387.91;;;-139.23;100.00
21644;BME280;10983;51.982;9.226;2023-02-15T09:08:51;65387.91;;;-139.23;100.00
21644;BME280;10983;51.982;9.226;2023-02-15T09:11:20;65387.91;;;-139.23;100.00
21644;BME280;10983;51.982;9.226;2023-02-15T09:13:52;65387.91;;;-139.23;100.00
21644;BME280;10983;51.982;9.226;2023-02-15T09:16:21;65387.91;;;-139.23;100.00
21644;BME280;10983;51.982;9.226;2023-02-15T09:18:49;65387.91;;;-139.23;100.00
21644;BME280;10983;51.982;9.226;2023-02-15T09:21:18;65387.91;;;-139.23;100.00
21644;BME280;10983;51.982;9.226;2023-02-15T09:23:49;65387.91;;;-139.23;100.00
21644;BME280;10983;51.982;9.226;2023-02-15T09:26:19;65387.91;;;-139.23;100.00
21644;BME280;10983;51.982;9.226;2023-02-15T09:28:47;65387.91;;;-139.23;100.00
21644;BME280;10983;51.982;9.226;2023-02-15T09:31:21;65387.91;;;-139.23;100.00
21644;BME280;10983;51.982;9.226;2023-02-15T09:33:50;65387.91;;;-139.23;100.00
21644;BME280;10983;51.982;9.226;2023-02-15T09:36:19;65387.91;;;-139.23;100.00
21644;BME280;10983;51.982;9.226;2023-02-15T09:38:54;65387.91;;;-139.23;100.00
21644;BME280;10983;51.982;9.226;2023-02-15T09:41:36;65387.91;;;-139.23;100.00
21644;BME280;10983;51.982;9.226;2023-02-15T09:44:15;65387.91;;;-139.23;100.00
21644;BME280;10983;51.982;9.226;2023-02-15T09:46:58;65387.91;;;-139.23;100.00
21644;BME280;10983;51.982;9.226;2023-02-15T09:49:32;65387.91;;;-139.23;100.00
21644;BME280;10983;51.982;9.226;2023-02-15T09:52:33;65387.91;;;-139.23;100.00
21644;BME280;10983;51.982;9.226;2023-02-15T09:55:21;65387.91;;;-139.23;100.00
21644;BME280;10983;51.982;9.226;2023-02-15T09:57:59;65387.91;;;-139.23;100.00
21644;BME280;10983;51.982;9.226;2023-02-15T10:00:37;65387.91;;;-139.23;100.00
21644;BME280;10983;51.982;9.226;2023-02-15T10:03:23;65387.91;;;-139.23;100.00
21644;BME280;10983;51.982;9.226;2023-02-15T10:06:04;65387.91;;;-139.23;100.00
21644;BME280;10983;51.982;9.226;2023-02-15T10:08:51;65387.91;;;-139.23;100.00
21644;BME280;10983;51.982;9.226;2023-02-15T10:11:25;65387.91;;;-139.23;100.00
21644;BME280;10983;51.982;9.226;2023-02-15T10:14:34;65387.91;;;-139.23;100.00
21644;BME280;10983;51.982;9.226;2023-02-15T10:17:14;65387.91;;;-139.23;100.00
21644;BME280;10983;51.982;9.226;2023-02-15T10:19:52;65387.91;;;-139.23;100.00
21644;BME280;10983;51.982;9.226;2023-02-15T10:22:32;65387.91;;;-139.23;100.00
21644;BME280;10983;51.982;9.226;2023-02-15T10:25:20;65387.91;;;-139.23;100.00
21644;BME280;10983;51.982;9.226;2023-02-15T10:27:53;65387.91;;;-139.23;100.00
21644;BME280;10983;51.982;9.226;2023-02-15T10:30:27;65387.91;;;-139.23;100.00
21644;BME280;10983;51.982;9.226;2023-02-15T10:33:00;65387.91;;;-139.23;100.00
21644;BME280;10983;51.982;9.226;2023-02-15T10:35:36;65387.91;;;-139.23;100.00
21644;BME280;10983;51.982;9.226;2023-02-15T10:38:19;65387.91;;;-139.23;100.00
21644;BME280;10983;51.982;9.226;2023-02-15T10:40:59;65387.91;;;-139.23;100.00
21644;BME280;10983;51.982;9.226;2023-02-15T10:43:43;65387.91;;;-139.23;100.00
21644;BME280;10983;51.982;9.226;2023-02-15T10:46:23;65387.91;;;-139.23;100.00
21644;BME280;10983;51.982;9.226;2023-02-15T10:49:14;65387.91;;;-139.23;100.00
21644;BME280;10983;51.982;9.226;2023-02-15T10:51:56;65387.91;;;-139.23;100.00
21644;BME280;10983;51.982;9.226;2023-02-15T10:54:36;65387.91;;;-139.23;100.00
21644;BME280;10983;51.982;9.226;2023-02-15T10:57:14;65387.91;;;-139.23;100.00
21644;BME280;10983;51.982;9.226;2023-02-15T10:59:58;65387.91;;;-139.23;100.00
21644;BME280;10983;51.982;9.226;2023-02-15T11:02:39;65387.91;;;-139.23;100.00
21644;BME280;10983;51.982;9.226;2023-02-15T11:05:21;65387.91;;;-139.23;100.00
21644;BME280;10983;51.982;9.226;2023-02-15T11:07:54;65387.91;;;-139.23;100.00
21644;BME280;10983;51.982;9.226;2023-02-15T11:10:29;65387.91;;;-139.23;100.00
21644;BME280;10983;51.982;9.226;2023-02-15T11:13:05;65387.91;;;-139.23;100.00
21644;BME280;10983;51.982;9.226;2023-02-15T11:15:40;65387.91;;;-139.23;100.00
21644;BME280;10983;51.982;9.226;2023-02-15T11:18:13;65387.91;;;-139.23;100.00
21644;BME280;10983;51.982;9.226;2023-02-15T11:20:45;65387.91;;;-139.23;100.00
21644;BME280;10983;51.982;9.226;2023-02-15T11:23:16;65387.91;;;-139.23;100.00
21644;BME280;10983;51.982;9.226;2023-02-15T11:25:46;65387.91;;;-139.23;100.00
21644;BME280;10983;51.982;9.226;2023-02-15T11:28:19;65387.91;;;-139.23;100.00
21644;BME280;10983;51.982;9.226;2023-02-15T11:30:54;65387.91;;;-139.23;100.00
21644;BME280;10983;51.982;9.226;2023-02-15T11:33:25;65387.91;;;-139.23;100.00
21644;BME280;10983;51.982;9.226;2023-02-15T11:35:56;65387.91;;;-139.23;100.00
21644;BME280;10983;51.982;9.226;2023-02-15T11:38:28;65387.91;;;-139.23;100.00
21644;BME280;10983;51.982;9.226;2023-02-15T11:40:59;65387.91;;;-139.23;100.00
21644;BME280;10983;51.982;9.226;2023-02-15T11:43:34;65387.91;;;-139.23;100.00
21644;BME280;10983;51.982;9.226;2023-02-15T11:46:04;65387.91;;;-139.23;100.00
21644;BME280;10983;51.982;9.226;2023-02-15T11:48:32;65387.91;;;-139.23;100.00
21644;BME280;10983;51.982;9.226;2023-02-15T11:51:01;65387.91;;;-139.23;100.00
21644;BME280;10983;51.982;9.226;2023-02-15T11:53:32;65387.91;;;-139.23;100.00
21644;BME280;10983;51.982;9.226;2023-02-15T11:56:01;65387.91;;;-139.23;100.00
21644;BME280;10983;51.982;9.226;2023-02-15T11:58:33;65387.91;;;-139.23;100.00
21644;BME280;10983;51.982;9.226;2023-02-15T12:01:10;65387.91;;;-139.23;100.00
21644;BME280;10983;51.982;9.226;2023-02-15T12:03:45;65387.91;;;-139.23;100.00
21644;BME280;10983;51.982;9.226;2023-02-15T12:06:21;65387.91;;;-139.23;100.00
21644;BME280;10983;51.982;9.226;2023-02-15T12:08:55;65387.91;;;-139.23;100.00
21644;BME280;10983;51.982;9.226;2023-02-15T12:11:31;65387.91;;;-139.23;100.00
21644;BME280;10983;51.982;9.226;2023-02-15T12:14:04;65387.91;;;-139.23;100.00
21644;BME280;10983;51.982;9.226;2023-02-15T12:16:40;65387.91;;;-139.23;100.00
21644;BME280;10983;51.982;9.226;2023-02-15T12:19:28;65387.91;;;-139.23;100.00
21644;BME280;10983;51.982;9.226;2023-02-15T12:21:58;65387.91;;;-139.23;100.00
21644;BME280;10983;51.982;9.226;2023-02-15T12:24:28;65387.91;;;-139.23;100.00
21644;BME280;10983;51.982;9.226;2023-02-15T12:26:59;65387.91;;;-139.23;100.00
21644;BME280;10983;51.982;9.226;2023-02-15T12:29:30;65387.91;;;-139.23;100.00
21644;BME280;10983;51.982;9.226;2023-02-15T12:32:01;65387.91;;;-139.23;100.00
21644;BME280;10983;51.982;9.226;2023-02-15T12:34:35;65387.91;;;-139.23;100.00
21644;BME280;10983;51.982;9.226;2023-02-15T12:37:11;65387.91;;;-139.23;100.00
21644;BME280;10983;51.982;9.226;2023-02-15T12:39:51;65387.91;;;-139.23;100.00
21644;BME280;10983;51.982;9.226;2023-02-15T12:42:20;65387.91;;;-139.23;100.00
21644;BME280;10983;51.982;9.226;2023-02-15T12:44:54;65387.91;;;-139.23;100.00
21644;BME280;10983;51.982;9.226;2023-02-15T12:47:24;65387.91;;;-139.23;100.00
21644;BME280;10983;51.982;9.226;2023-02-15T12:50:15;65387.91;;;-139.23;100.00
21644;BME280;10983;51.982;9.226;2023-02-15T12:52:50;65387.91;;;-139.23;100.00
21644;BME280;10983;51.982;9.226;2023-02-15T12:55:21;65387.91;;;-139.23;100.00
21644;BME280;10983;51.982;9.226;2023-02-15T12:57:48;65387.91;;;-139.23;100.00
21644;BME280;10983;51.982;9.226;2023-02-15T13:00:28;65387.91;;;-139.23;100.00
21644;BME280;10983;51.982;9.226;2023-02-15T13:03:00;65387.91;;;-139.23;100.00
21644;BME280;10983;51.982;9.226;2023-02-15T13:05:31;65387.91;;;-139.23;100.00
21644;BME280;10983;51.982;9.226;2023-02-15T13:08:01;65387.91;;;-139.23;100.00
21644;BME280;10983;51.982;9.226;2023-02-15T13:10:33;65387.91;;;-139.23;100.00
21644;BME280;10983;51.982;9.226;2023-02-15T13:13:09;65387.91;;;-139.23;100.00